createdAt,value
2022-07-31T00:01:58.209Z,22.71
2022-07-31T00:04:44.077Z,22.72
2022-07-31T00:07:30.023Z,22.66
2022-07-31T00:10:16.363Z,22.65
2022-07-31T00:13:02.415Z,22.70
2022-07-31T00:15:48.223Z,22.70
2022-07-31T00:18:35.268Z,22.63
2022-07-31T00:21:21.473Z,22.72
2022-07-31T00:24:07.595Z,22.70
2022-07-31T00:26:53.424Z,22.69
2022-07-31T00:29:40.325Z,22.69
2022-07-31T00:32:26.763Z,22.72
2022-07-31T00:35:14.208Z,22.65
2022-07-31T00:38:25.589Z,22.66
2022-07-31T00:41:07.130Z,22.67
2022-07-31T00:43:53.441Z,22.61
2022-07-31T00:46:40.644Z,22.63
2022-07-31T00:49:26.350Z,22.55
2022-07-31T00:52:23.842Z,22.51
2022-07-31T00:55:10.237Z,22.57
2022-07-31T00:57:56.194Z,22.47
2022-07-31T01:00:42.115Z,22.50
2022-07-31T01:03:28.421Z,22.47
2022-07-31T01:06:15.090Z,22.44
2022-07-31T01:09:00.902Z,22.29
2022-07-31T01:12:14.237Z,22.31
2022-07-31T01:15:04.001Z,22.35
2022-07-31T01:17:51.528Z,22.32
2022-07-31T01:20:38.048Z,22.32
2022-07-31T01:24:12.384Z,22.13
2022-07-31T01:27:49.460Z,22.15
2022-07-31T01:31:25.458Z,22.13
2022-07-31T01:34:16.905Z,22.18
2022-07-31T01:37:22.843Z,22.13
2022-07-31T01:40:16.611Z,22.19
2022-07-31T01:43:06.609Z,22.10
2022-07-31T01:45:55.949Z,22.13
2022-07-31T01:48:44.141Z,22.12
2022-07-31T01:51:31.866Z,22.09
2022-07-31T01:54:19.108Z,22.05
2022-07-31T01:57:06.340Z,22.07
2022-07-31T02:00:33.609Z,22.07
2022-07-31T02:03:15.473Z,21.93
2022-07-31T02:06:04.145Z,21.97
2022-07-31T02:08:51.654Z,21.84
2022-07-31T02:11:45.779Z,21.92
2022-07-31T02:14:41.444Z,21.84
2022-07-31T02:17:28.864Z,21.94
2022-07-31T02:20:34.018Z,21.79
2022-07-31T02:23:20.301Z,21.90
2022-07-31T02:26:07.293Z,21.87
2022-07-31T02:28:53.662Z,21.89
2022-07-31T02:31:39.818Z,21.89
2022-07-31T02:34:29.101Z,21.83
2022-07-31T02:37:16.475Z,21.86
2022-07-31T02:40:03.642Z,21.86
2022-07-31T02:42:52.081Z,21.84
2022-07-31T02:45:38.540Z,21.86
2022-07-31T02:48:25.378Z,21.92
2022-07-31T02:51:13.266Z,21.93
2022-07-31T02:54:01.143Z,21.98
2022-07-31T02:56:48.628Z,21.97
2022-07-31T02:59:38.480Z,21.94
2022-07-31T03:02:37.040Z,21.93
2022-07-31T03:05:24.984Z,21.94
2022-07-31T03:08:10.951Z,21.99
2022-07-31T03:10:59.749Z,21.99
2022-07-31T03:13:45.910Z,21.92
2022-07-31T03:16:32.277Z,21.94
2022-07-31T03:19:21.774Z,21.93
2022-07-31T03:22:13.643Z,21.92
2022-07-31T03:25:03.568Z,21.84
2022-07-31T03:27:52.715Z,21.94
2022-07-31T03:30:43.600Z,21.91
2022-07-31T03:33:29.951Z,21.90
2022-07-31T03:36:16.409Z,21.86
2022-07-31T03:39:02.311Z,21.86
2022-07-31T03:41:57.006Z,21.90
2022-07-31T03:44:43.791Z,21.88
2022-07-31T03:47:30.505Z,21.88
2022-07-31T03:50:17.324Z,21.84
2022-07-31T03:53:05.346Z,21.85
2022-07-31T03:55:54.570Z,21.85
2022-07-31T03:58:40.934Z,21.85
2022-07-31T04:01:27.734Z,21.83
2022-07-31T04:04:39.072Z,21.88
2022-07-31T04:07:25.440Z,21.89
2022-07-31T04:10:11.642Z,21.92
2022-07-31T04:12:57.642Z,21.93
2022-07-31T04:15:44.144Z,21.89
2022-07-31T04:18:30.396Z,21.98
2022-07-31T04:21:16.338Z,22.00
2022-07-31T04:24:02.212Z,21.97
2022-07-31T04:27:00.311Z,21.99
2022-07-31T04:29:53.562Z,21.92
2022-07-31T04:32:40.708Z,21.93
2022-07-31T04:35:47.468Z,21.88
2022-07-31T04:38:33.257Z,21.92
2022-07-31T04:41:19.191Z,21.90
2022-07-31T04:44:05.173Z,21.90
2022-07-31T04:47:11.100Z,21.92
2022-07-31T04:50:02.118Z,21.97
2022-07-31T04:52:50.075Z,21.99
2022-07-31T04:55:36.377Z,21.98
2022-07-31T04:58:22.256Z,22.00
2022-07-31T05:01:08.107Z,22.03
2022-07-31T05:03:55.813Z,22.07
2022-07-31T05:06:45.865Z,22.08
2022-07-31T05:09:33.764Z,22.12
2022-07-31T05:12:23.582Z,22.11
2022-07-31T05:15:09.934Z,22.10
2022-07-31T05:17:55.853Z,22.13
2022-07-31T05:21:15.723Z,22.14
2022-07-31T05:24:33.173Z,22.18
2022-07-31T05:27:32.226Z,22.17
2022-07-31T05:30:30.557Z,22.10
2022-07-31T05:33:17.210Z,22.18
2022-07-31T05:36:04.351Z,22.19
2022-07-31T05:38:51.147Z,22.24
2022-07-31T05:42:13.009Z,22.24
2022-07-31T05:45:17.725Z,22.25
2022-07-31T05:48:04.283Z,22.30
2022-07-31T05:50:51.220Z,22.26
2022-07-31T05:53:37.724Z,22.30
2022-07-31T05:56:49.482Z,22.30
2022-07-31T05:59:39.557Z,22.34
2022-07-31T06:02:25.428Z,22.32
2022-07-31T06:05:30.135Z,22.37
2022-07-31T06:08:16.769Z,22.45
2022-07-31T06:11:06.114Z,22.45
2022-07-31T06:13:51.890Z,22.50
2022-07-31T06:16:43.145Z,22.52
2022-07-31T06:19:29.158Z,22.51
2022-07-31T06:22:15.101Z,22.57
2022-07-31T06:25:01.311Z,22.58
2022-07-31T06:27:51.979Z,22.70
2022-07-31T06:30:45.156Z,22.65
2022-07-31T06:33:37.908Z,22.78
2022-07-31T06:36:24.545Z,22.83
2022-07-31T06:39:18.067Z,22.86
2022-07-31T06:42:24.305Z,22.90
2022-07-31T06:45:49.871Z,22.99
2022-07-31T06:48:59.641Z,23.08
2022-07-31T06:51:46.241Z,23.12
2022-07-31T06:54:32.009Z,23.17
2022-07-31T06:57:18.255Z,23.20
2022-07-31T07:00:15.233Z,23.31
2022-07-31T07:03:08.009Z,23.34
2022-07-31T07:05:53.932Z,23.33
2022-07-31T07:08:39.964Z,23.48
2022-07-31T07:11:26.473Z,23.46
2022-07-31T07:31:23.604Z,22.11
2022-07-31T07:34:10.166Z,22.35
2022-07-31T07:36:56.294Z,22.61
2022-07-31T07:39:48.660Z,22.69
2022-07-31T07:42:35.501Z,23.11
2022-07-31T07:45:22.062Z,23.30
2022-07-31T07:48:08.088Z,23.51
2022-07-31T07:51:14.047Z,23.72
2022-07-31T07:54:10.801Z,23.80
2022-07-31T07:57:16.802Z,23.85
2022-07-31T08:00:21.786Z,23.92
2022-07-31T08:03:50.806Z,24.02
2022-07-31T08:06:23.766Z,24.02
2022-07-31T08:09:09.886Z,24.12
2022-07-31T08:12:14.656Z,24.20
2022-07-31T08:15:19.665Z,24.26
2022-07-31T08:18:40.666Z,24.26
2022-07-31T08:21:26.853Z,24.39
2022-07-31T08:24:16.796Z,24.47
2022-07-31T08:27:21.748Z,24.61
2022-07-31T08:30:08.850Z,24.60
2022-07-31T08:32:54.841Z,24.74
2022-07-31T08:35:51.576Z,24.67
2022-07-31T08:38:39.505Z,24.78
2022-07-31T08:41:44.424Z,24.89
2022-07-31T08:44:31.006Z,24.98
2022-07-31T08:47:18.392Z,25.12
2022-07-31T08:50:05.696Z,25.18
2022-07-31T08:52:54.869Z,25.23
2022-07-31T08:55:56.836Z,25.27
2022-07-31T08:58:47.578Z,25.41
2022-07-31T09:01:35.161Z,25.47
2022-07-31T09:04:21.446Z,25.58
2022-07-31T09:07:11.100Z,25.72
2022-07-31T09:09:56.997Z,25.68
2022-07-31T09:12:44.197Z,25.79
2022-07-31T09:15:31.507Z,25.86
2022-07-31T09:18:22.307Z,25.90
2022-07-31T09:21:16.869Z,25.70
2022-07-31T09:24:03.127Z,24.94
2022-07-31T09:26:53.943Z,25.59
2022-07-31T09:29:45.514Z,25.53
2022-07-31T09:32:45.960Z,25.59
2022-07-31T09:35:50.088Z,25.44
2022-07-31T09:38:39.306Z,25.73
2022-07-31T09:41:57.983Z,25.82
2022-07-31T09:45:18.843Z,25.66
2022-07-31T09:48:08.252Z,25.96
2022-07-31T09:50:58.574Z,26.11
2022-07-31T09:53:53.572Z,26.00
2022-07-31T09:56:58.863Z,26.14
2022-07-31T09:59:50.185Z,26.14
2022-07-31T10:02:39.721Z,26.18
2022-07-31T10:05:27.773Z,26.38
2022-07-31T10:08:17.467Z,26.18
2022-07-31T10:11:25.053Z,26.36
2022-07-31T10:14:44.195Z,26.48
2022-07-31T10:17:36.087Z,26.53
2022-07-31T10:20:36.264Z,26.55
2022-07-31T10:23:23.964Z,26.63
2022-07-31T10:26:12.112Z,26.75
2022-07-31T10:28:58.613Z,26.66
2022-07-31T10:31:46.372Z,26.68
2022-07-31T10:34:34.801Z,26.84
2022-07-31T10:37:48.666Z,26.89
2022-07-31T10:40:54.641Z,26.91
2022-07-31T10:43:47.039Z,27.00
2022-07-31T10:46:56.137Z,26.74
2022-07-31T10:50:06.377Z,27.05
2022-07-31T10:53:20.332Z,27.05
2022-07-31T10:56:42.532Z,27.00
2022-07-31T10:59:44.887Z,27.21
2022-07-31T11:03:14.411Z,26.86
2022-07-31T11:06:21.624Z,27.34
2022-07-31T11:09:22.218Z,27.42
2022-07-31T11:12:27.442Z,27.41
2022-07-31T11:15:39.469Z,27.47
2022-07-31T11:18:46.539Z,27.41
2022-07-31T11:21:41.806Z,27.41
2022-07-31T11:24:27.808Z,27.54
2022-07-31T11:27:13.686Z,27.21
2022-07-31T11:30:13.211Z,27.37
2022-07-31T11:32:59.688Z,27.46
2022-07-31T11:35:45.766Z,27.57
2022-07-31T11:38:31.829Z,27.57
2022-07-31T11:41:20.246Z,27.67
2022-07-31T11:44:08.575Z,27.62
2022-07-31T11:46:54.855Z,27.52
2022-07-31T11:49:48.744Z,27.76
2022-07-31T11:52:37.242Z,27.88
2022-07-31T11:55:23.566Z,27.89
2022-07-31T11:58:11.375Z,27.73
2022-07-31T12:00:59.685Z,27.25
2022-07-31T12:03:47.102Z,27.74
2022-07-31T12:06:36.413Z,27.80
2022-07-31T12:10:01.471Z,28.07
2022-07-31T12:12:28.760Z,28.14
2022-07-31T12:15:20.128Z,28.06
2022-07-31T12:18:06.739Z,28.25
2022-07-31T12:20:59.081Z,28.30
2022-07-31T12:23:50.548Z,28.37
2022-07-31T12:26:36.458Z,28.57
2022-07-31T12:29:34.501Z,28.65
2022-07-31T12:32:26.001Z,28.78
2022-07-31T12:35:12.365Z,28.77
2022-07-31T12:37:58.655Z,28.80
2022-07-31T12:40:48.277Z,29.14
2022-07-31T12:43:34.378Z,29.21
2022-07-31T12:46:21.780Z,29.31
2022-07-31T12:49:08.519Z,29.34
2022-07-31T12:51:54.598Z,29.50
2022-07-31T12:54:40.756Z,29.62
2022-07-31T12:57:26.679Z,29.36
2022-07-31T13:00:12.945Z,29.61
2022-07-31T13:02:59.732Z,29.69
2022-07-31T13:05:49.197Z,29.69
2022-07-31T13:08:38.100Z,29.73
2022-07-31T13:11:25.806Z,29.56
2022-07-31T13:14:12.087Z,29.49
2022-07-31T13:16:57.952Z,29.50
2022-07-31T13:19:43.709Z,29.49
2022-07-31T13:22:29.604Z,29.64
2022-07-31T13:25:15.424Z,29.68
2022-07-31T13:28:01.206Z,29.56
2022-07-31T13:30:47.117Z,29.69
2022-07-31T13:33:32.989Z,29.77
2022-07-31T13:36:18.985Z,29.75
2022-07-31T13:39:04.930Z,29.96
2022-07-31T13:41:50.785Z,29.50
2022-07-31T13:44:36.797Z,29.92
2022-07-31T13:47:22.919Z,30.19
2022-07-31T13:50:08.930Z,30.28
2022-07-31T13:52:55.063Z,30.41
2022-07-31T13:55:41.143Z,30.57
2022-07-31T13:58:27.335Z,30.63
2022-07-31T14:01:13.433Z,30.68
2022-07-31T14:03:59.359Z,30.87
2022-07-31T14:06:47.458Z,31.16
2022-07-31T14:09:34.790Z,31.57
2022-07-31T14:12:20.618Z,31.83
2022-07-31T14:15:07.883Z,32.27
2022-07-31T14:17:53.943Z,32.62
2022-07-31T14:20:39.767Z,33.10
2022-07-31T14:23:34.199Z,33.47
2022-07-31T14:26:22.363Z,33.88
2022-07-31T14:29:08.524Z,34.26
2022-07-31T14:31:54.453Z,34.57
2022-07-31T14:34:40.239Z,34.87
2022-07-31T14:37:26.195Z,35.19
2022-07-31T14:40:12.652Z,35.37
2022-07-31T14:42:58.701Z,35.61
2022-07-31T14:45:51.865Z,35.75
2022-07-31T14:48:38.252Z,36.00
2022-07-31T14:51:24.169Z,36.13
2022-07-31T14:54:10.231Z,36.32
2022-07-31T14:57:01.448Z,36.45
2022-07-31T14:59:48.174Z,36.56
2022-07-31T15:02:34.352Z,36.69
2022-07-31T15:06:41.017Z,36.87
2022-07-31T15:08:26.465Z,36.99
2022-07-31T15:11:12.468Z,37.13
2022-07-31T15:13:58.336Z,37.21
2022-07-31T15:16:44.600Z,37.36
2022-07-31T15:19:35.472Z,37.48
2022-07-31T15:22:21.437Z,37.52
2022-07-31T15:25:08.704Z,37.67
2022-07-31T15:27:54.483Z,37.51
2022-07-31T15:30:40.517Z,37.54
2022-07-31T15:33:26.455Z,37.63
2022-07-31T15:36:15.145Z,37.65
2022-07-31T15:39:01.358Z,37.68
2022-07-31T15:41:47.260Z,37.64
2022-07-31T15:44:33.144Z,37.37
2022-07-31T15:47:19.136Z,36.94
2022-07-31T15:50:06.299Z,36.58
2022-07-31T15:52:53.515Z,36.09
2022-07-31T15:55:39.907Z,35.68
2022-07-31T15:58:26.070Z,35.25
2022-07-31T16:01:14.507Z,34.88
2022-07-31T16:04:00.856Z,34.51
2022-07-31T16:06:50.482Z,34.17
2022-07-31T16:10:03.489Z,33.75
2022-07-31T16:12:46.103Z,33.26
2022-07-31T16:15:32.474Z,32.88
2022-07-31T16:18:18.918Z,32.71
2022-07-31T16:21:05.213Z,32.36
2022-07-31T16:23:51.314Z,32.03
2022-07-31T16:26:39.969Z,31.68
2022-07-31T16:30:00.945Z,31.42
2022-07-31T16:32:32.778Z,31.14
2022-07-31T16:35:19.008Z,31.01
2022-07-31T16:38:05.087Z,30.67
2022-07-31T16:40:53.523Z,30.51
2022-07-31T16:43:47.785Z,30.28
2022-07-31T16:46:37.099Z,30.07
2022-07-31T16:49:24.032Z,29.98
2022-07-31T16:52:22.620Z,29.75
2022-07-31T16:55:09.040Z,29.70
2022-07-31T16:57:55.410Z,29.58
2022-07-31T17:00:41.900Z,29.36
2022-07-31T17:04:00.550Z,29.29
2022-07-31T17:06:37.995Z,29.14
2022-07-31T17:09:24.418Z,29.05
2022-07-31T17:12:11.722Z,28.93
2022-07-31T17:14:57.800Z,28.81
2022-07-31T17:17:44.700Z,28.70
2022-07-31T17:20:30.923Z,28.56
2022-07-31T17:23:18.202Z,28.55
2022-07-31T17:26:23.919Z,28.40
2022-07-31T17:29:09.773Z,28.35
2022-07-31T17:31:55.859Z,28.15
2022-07-31T17:34:45.911Z,28.12
2022-07-31T17:37:32.041Z,28.02
2022-07-31T17:40:42.116Z,27.96
2022-07-31T17:43:27.717Z,27.84
2022-07-31T17:46:21.790Z,27.74
2022-07-31T17:49:19.533Z,27.61
2022-07-31T17:52:07.237Z,27.61
2022-07-31T17:54:54.737Z,27.53
2022-07-31T17:57:40.985Z,27.45
2022-07-31T18:00:31.083Z,27.38
2022-07-31T18:03:18.585Z,27.27
2022-07-31T18:06:05.180Z,27.24
2022-07-31T18:08:51.343Z,27.18
2022-07-31T18:11:37.708Z,27.11
2022-07-31T18:14:25.002Z,27.13
2022-07-31T18:17:11.266Z,27.08
2022-07-31T18:19:57.870Z,27.14
2022-07-31T18:22:49.801Z,27.11
2022-07-31T18:25:35.978Z,26.96
2022-07-31T18:28:21.848Z,27.15
2022-07-31T18:31:30.759Z,27.10
2022-07-31T18:34:14.370Z,27.09
2022-07-31T18:37:00.548Z,27.11
2022-07-31T18:39:48.725Z,26.99
2022-07-31T18:42:35.443Z,26.99
2022-07-31T18:45:23.605Z,26.96
2022-07-31T18:48:09.732Z,26.90
2022-07-31T18:50:59.131Z,26.81
2022-07-31T18:53:50.404Z,26.69
2022-07-31T18:56:36.702Z,26.62
2022-07-31T18:59:22.756Z,26.66
2022-07-31T19:02:11.490Z,26.58
2022-07-31T19:04:58.654Z,26.50
2022-07-31T19:07:44.761Z,26.46
2022-07-31T19:10:34.736Z,26.42
2022-07-31T19:13:21.720Z,26.38
2022-07-31T19:16:08.484Z,26.23
2022-07-31T19:18:55.901Z,26.25
2022-07-31T19:21:43.055Z,26.23
2022-07-31T19:24:29.481Z,26.15
2022-07-31T19:27:15.905Z,26.10
2022-07-31T19:30:02.126Z,26.03
2022-07-31T19:32:48.196Z,25.97
2022-07-31T19:35:34.616Z,25.77
2022-07-31T19:38:44.175Z,25.84
2022-07-31T19:41:30.359Z,25.72
2022-07-31T19:44:16.443Z,25.69
2022-07-31T19:47:02.396Z,25.59
2022-07-31T19:49:48.480Z,25.53
2022-07-31T19:52:34.645Z,25.50
2022-07-31T19:55:20.601Z,25.41
2022-07-31T19:58:06.610Z,25.34
2022-07-31T20:00:52.629Z,25.33
2022-07-31T20:03:38.844Z,25.25
2022-07-31T20:06:28.080Z,25.18
2022-07-31T20:09:15.437Z,25.12
2022-07-31T20:12:02.034Z,25.03
2022-07-31T20:14:49.745Z,25.02
2022-07-31T20:17:36.473Z,25.01
2022-07-31T20:20:22.266Z,24.95
2022-07-31T20:23:08.425Z,24.79
2022-07-31T20:25:57.791Z,24.86
2022-07-31T20:28:45.219Z,24.78
2022-07-31T20:31:31.531Z,24.75
2022-07-31T20:34:17.921Z,24.68
2022-07-31T20:37:04.584Z,24.66
2022-07-31T20:39:50.548Z,24.70
2022-07-31T20:42:36.353Z,24.63
2022-07-31T20:45:23.378Z,24.59
2022-07-31T20:48:09.193Z,24.66
2022-07-31T20:50:55.135Z,24.62
2022-07-31T20:53:41.005Z,24.59
2022-07-31T20:56:27.226Z,24.55
2022-07-31T20:59:14.482Z,24.59
2022-07-31T21:02:03.539Z,24.52
2022-07-31T21:04:49.778Z,24.47
2022-07-31T21:07:36.079Z,24.41
2022-07-31T21:10:24.026Z,24.40
2022-07-31T21:13:10.162Z,24.40
2022-07-31T21:15:56.672Z,24.37
2022-07-31T21:18:43.557Z,24.35
2022-07-31T21:21:29.984Z,24.31
2022-07-31T21:24:16.413Z,24.20
2022-07-31T21:27:03.276Z,24.23
2022-07-31T21:29:51.896Z,24.21
2022-07-31T21:32:41.570Z,24.20
2022-07-31T21:35:37.294Z,24.17
2022-07-31T21:38:23.914Z,24.15
2022-07-31T21:41:10.516Z,24.13
2022-07-31T21:43:58.790Z,24.14
2022-07-31T21:46:51.830Z,24.11
2022-07-31T21:49:38.832Z,23.99
2022-07-31T21:52:27.294Z,24.05
2022-07-31T21:55:13.650Z,23.95
2022-07-31T21:58:00.158Z,24.02
2022-07-31T22:00:46.513Z,23.98
2022-07-31T22:03:32.993Z,23.90
2022-07-31T22:06:37.459Z,23.87
2022-07-31T22:09:26.589Z,23.82
2022-07-31T22:12:12.788Z,23.86
2022-07-31T22:14:58.653Z,23.74
2022-07-31T22:17:46.781Z,23.63
2022-07-31T22:20:33.169Z,23.58
2022-07-31T22:23:19.640Z,23.54
2022-07-31T22:26:05.800Z,23.45
2022-07-31T22:28:52.294Z,23.39
2022-07-31T22:31:38.731Z,23.30
2022-07-31T22:34:37.530Z,23.24
2022-07-31T22:37:27.716Z,23.15
2022-07-31T22:40:16.101Z,23.16
2022-07-31T22:43:03.509Z,23.02
2022-07-31T22:45:49.884Z,22.97
2022-07-31T22:48:36.530Z,22.87
2022-07-31T22:51:22.517Z,22.83
2022-07-31T22:54:08.689Z,22.74
2022-07-31T22:56:54.594Z,22.67
2022-07-31T22:59:40.627Z,22.64
2022-07-31T23:02:27.464Z,21.84
2022-07-31T23:05:13.605Z,22.27
2022-07-31T23:07:59.739Z,22.20
2022-07-31T23:10:46.022Z,22.21
2022-07-31T23:13:32.194Z,22.02
2022-07-31T23:16:18.414Z,22.05
2022-07-31T23:19:04.605Z,22.11
2022-07-31T23:21:50.490Z,22.14
2022-07-31T23:24:36.850Z,22.11
2022-07-31T23:27:22.943Z,22.13
2022-07-31T23:30:09.421Z,22.16
2022-07-31T23:32:55.474Z,22.12
2022-07-31T23:35:41.642Z,22.13
2022-07-31T23:38:27.605Z,22.11
2022-07-31T23:41:14.357Z,22.02
2022-07-31T23:44:00.455Z,22.06
2022-07-31T23:46:46.275Z,22.02
2022-07-31T23:49:35.741Z,21.99
2022-07-31T23:52:21.516Z,22.01
2022-07-31T23:55:07.703Z,21.98
2022-07-31T23:57:53.989Z,21.85
